Time;durP1;ratioP1;P1;durP2;ratioP2;P2;SDS_P1;SDS_P2;PMS_P1;PMS_P2;Temp;Humidity;BMP_temperature;BMP_pressure;BME280_temperature;BME280_humidity;BME280_pressure;Samples;Min_cycle;Max_cycle;Signal;HPM_P1;HPM_P2
2023/07/19 00:00:18;;;;;;;5.38;1.90;;;17.50;99.90;;;;;;5088759;28;20063;-70
2023/07/19 00:02:43;;;;;;;4.70;2.00;;;17.50;99.90;;;;;;5085866;28;20048;-70
2023/07/19 00:05:12;;;;;;;5.18;1.98;;;17.50;99.90;;;;;;5087958;28;20093;-70
2023/07/19 00:07:37;;;;;;;5.13;2.25;;;17.50;99.90;;;;;;5068230;28;20070;-70
2023/07/19 00:10:05;;;;;;;4.75;1.80;;;17.50;99.90;;;;;;5089147;28;20037;-70
2023/07/19 00:12:32;;;;;;;4.22;1.75;;;17.50;99.90;;;;;;5087137;28;20441;-70
2023/07/19 00:14:58;;;;;;;5.55;2.30;;;17.50;99.90;;;;;;5071339;28;20080;-69
2023/07/19 00:17:23;;;;;;;5.45;2.00;;;17.40;99.90;;;;;;5079430;28;20083;-69
2023/07/19 00:19:49;;;;;;;6.25;2.03;;;17.50;99.90;;;;;;5088787;28;20044;-70
2023/07/19 00:22:15;;;;;;;5.15;1.92;;;17.40;99.90;;;;;;5064776;28;20537;-70
2023/07/19 00:24:40;;;;;;;6.03;2.00;;;17.40;99.90;;;;;;5068733;28;20044;-70
2023/07/19 00:27:06;;;;;;;4.78;1.75;;;17.40;99.90;;;;;;5087427;28;20059;-70
2023/07/19 00:29:32;;;;;;;5.90;1.70;;;17.40;99.90;;;;;;5088183;28;20369;-70
2023/07/19 00:31:58;;;;;;;7.03;2.25;;;17.40;99.90;;;;;;5084292;28;20073;-69
2023/07/19 00:34:24;;;;;;;5.53;2.03;;;17.30;99.90;;;;;;5087054;28;20054;-70
2023/07/19 00:36:49;;;;;;;7.50;2.00;;;17.30;99.90;;;;;;5088409;28;20655;-70
2023/07/19 00:39:15;;;;;;;4.60;2.00;;;17.30;99.90;;;;;;5086926;28;20059;-70
2023/07/19 00:41:41;;;;;;;3.92;1.90;;;17.30;99.90;;;;;;5081712;28;20070;-69
2023/07/19 00:44:07;;;;;;;4.20;1.80;;;17.30;99.90;;;;;;5086497;28;20528;-70
2023/07/19 00:46:34;;;;;;;6.20;1.90;;;17.20;99.90;;;;;;5087029;28;20044;-69
2023/07/19 00:49:00;;;;;;;7.43;2.33;;;17.20;99.90;;;;;;5088249;28;20494;-69
2023/07/19 00:51:26;;;;;;;5.88;2.05;;;17.20;99.90;;;;;;5069419;28;20052;-69
2023/07/19 00:53:53;;;;;;;4.25;2.03;;;17.20;99.90;;;;;;5087178;28;20523;-69
2023/07/19 00:56:20;;;;;;;7.05;2.55;;;17.20;99.90;;;;;;5086408;28;20090;-69
2023/07/19 00:58:49;;;;;;;4.47;1.90;;;17.20;99.90;;;;;;5085939;28;20040;-70
2023/07/19 01:01:15;;;;;;;5.05;2.08;;;17.20;99.90;;;;;;5084536;28;20054;-69
2023/07/19 01:03:41;;;;;;;6.15;2.28;;;17.20;99.90;;;;;;5058887;28;20489;-69
2023/07/19 01:06:07;;;;;;;5.75;2.30;;;17.20;99.90;;;;;;5076016;28;20051;-69
2023/07/19 01:08:33;;;;;;;6.47;2.05;;;17.20;99.90;;;;;;5084820;28;20051;-69
2023/07/19 01:11:00;;;;;;;5.68;1.92;;;17.20;99.90;;;;;;5087508;28;20131;-69
2023/07/19 01:13:26;;;;;;;4.60;1.88;;;17.20;99.90;;;;;;5083770;28;20044;-69
2023/07/19 01:15:51;;;;;;;5.47;2.00;;;17.10;99.90;;;;;;5088051;28;20050;-70
2023/07/19 01:18:20;;;;;;;6.32;2.10;;;17.10;99.90;;;;;;5086116;28;20059;-69
2023/07/19 01:20:46;;;;;;;6.78;2.25;;;17.20;99.90;;;;;;5085469;28;20078;-69
2023/07/19 01:23:12;;;;;;;4.40;1.73;;;17.20;99.90;;;;;;5084114;28;20055;-69
2023/07/19 01:25:38;;;;;;;5.78;2.10;;;17.20;99.90;;;;;;5078514;28;20048;-69
2023/07/19 01:28:05;;;;;;;6.22;2.33;;;17.10;99.90;;;;;;5080897;28;20047;-69
2023/07/19 01:30:31;;;;;;;5.32;1.85;;;17.20;99.90;;;;;;5076922;28;20584;-69
2023/07/19 01:32:57;;;;;;;6.10;2.13;;;17.10;99.90;;;;;;5078800;28;20054;-70
2023/07/19 01:35:23;;;;;;;8.23;2.28;;;17.10;99.90;;;;;;5078064;28;20040;-68
2023/07/19 01:37:48;;;;;;;6.03;2.22;;;17.20;99.90;;;;;;5085824;28;20405;-68
2023/07/19 01:40:14;;;;;;;6.43;1.90;;;17.20;99.90;;;;;;5086642;28;20048;-67
2023/07/19 01:42:40;;;;;;;5.60;2.30;;;17.10;99.90;;;;;;5082757;28;20047;-68
2023/07/19 01:45:07;;;;;;;5.53;2.22;;;17.10;99.90;;;;;;5085970;28;20036;-67
2023/07/19 01:47:33;;;;;;;6.05;2.70;;;17.10;99.90;;;;;;5082869;28;20044;-68
2023/07/19 01:49:59;;;;;;;6.13;2.40;;;17.10;99.90;;;;;;5063501;28;20074;-68
2023/07/19 01:52:25;;;;;;;4.30;2.25;;;17.10;99.90;;;;;;5068400;28;20123;-67
2023/07/19 01:54:51;;;;;;;6.95;2.20;;;17.00;99.90;;;;;;5068949;28;20132;-68
2023/07/19 01:57:16;;;;;;;7.38;2.40;;;17.10;99.90;;;;;;5085739;28;20063;-68
2023/07/19 01:59:42;;;;;;;6.90;2.28;;;17.10;99.90;;;;;;5068313;28;20657;-67
2023/07/19 02:02:08;;;;;;;8.10;2.33;;;17.10;99.90;;;;;;5067574;28;20477;-67
2023/07/19 02:04:34;;;;;;;8.07;2.50;;;17.00;99.90;;;;;;5085835;28;20040;-68
2023/07/19 02:06:59;;;;;;;5.82;2.30;;;17.00;99.90;;;;;;5085036;28;20058;-67
2023/07/19 02:09:25;;;;;;;5.90;2.50;;;17.00;99.90;;;;;;5087167;28;20043;-68
2023/07/19 02:11:51;;;;;;;10.65;2.33;;;17.00;99.90;;;;;;5084985;28;20080;-67
2023/07/19 02:14:18;;;;;;;6.65;2.90;;;17.00;99.90;;;;;;5084103;28;20040;-68
2023/07/19 02:16:44;;;;;;;6.40;2.28;;;17.00;99.90;;;;;;5081880;28;20125;-68
2023/07/19 02:19:09;;;;;;;8.63;2.88;;;17.00;99.90;;;;;;5071933;28;20089;-68
2023/07/19 02:21:35;;;;;;;6.32;2.15;;;17.00;99.90;;;;;;5085701;28;20051;-68
2023/07/19 02:24:01;;;;;;;5.28;2.42;;;17.00;99.90;;;;;;5084862;28;20044;-68
2023/07/19 02:26:27;;;;;;;7.07;2.88;;;17.00;99.90;;;;;;5085360;28;20048;-67
2023/07/19 02:28:52;;;;;;;7.13;2.80;;;17.00;99.90;;;;;;5068023;28;20103;-68
2023/07/19 02:31:18;;;;;;;8.25;3.67;;;17.00;99.90;;;;;;5081270;28;20052;-68
2023/07/19 02:33:44;;;;;;;6.97;2.75;;;16.90;99.90;;;;;;5082581;28;20081;-68
2023/07/19 02:36:11;;;;;;;7.53;3.63;;;16.90;99.90;;;;;;5086069;28;20127;-67
2023/07/19 02:38:37;;;;;;;9.18;4.15;;;17.00;99.90;;;;;;5085389;28;20381;-71
2023/07/19 02:41:03;;;;;;;7.28;3.42;;;16.90;99.90;;;;;;5086024;28;20531;-71
2023/07/19 02:43:29;;;;;;;9.25;3.70;;;16.90;99.90;;;;;;5071978;28;20056;-70
2023/07/19 02:45:55;;;;;;;8.10;3.97;;;16.90;99.90;;;;;;5088150;28;20032;-70
2023/07/19 02:48:22;;;;;;;8.15;3.67;;;16.90;99.90;;;;;;5089046;28;20067;-71
2023/07/19 02:50:49;;;;;;;6.43;3.60;;;16.80;99.90;;;;;;5089908;28;20047;-71
2023/07/19 02:53:15;;;;;;;9.32;3.60;;;16.90;99.90;;;;;;5089528;28;20165;-71
2023/07/19 02:55:47;;;;;;;7.75;3.78;;;16.80;99.90;;;;;;5072166;28;20052;-70
2023/07/19 02:58:14;;;;;;;7.68;4.18;;;16.80;99.90;;;;;;5082030;28;20050;-70
2023/07/19 03:00:43;;;;;;;9.55;4.60;;;16.80;99.90;;;;;;5085166;28;20051;-71
2023/07/19 03:03:10;;;;;;;8.68;3.97;;;16.80;99.90;;;;;;5087168;28;20071;-71
2023/07/19 03:05:42;;;;;;;8.27;3.97;;;16.80;99.90;;;;;;5089124;28;20063;-70
2023/07/19 03:08:08;;;;;;;8.75;4.03;;;16.80;99.90;;;;;;5088868;28;20063;-70
2023/07/19 03:10:34;;;;;;;7.65;4.43;;;16.80;99.90;;;;;;5088681;28;20047;-71
2023/07/19 03:13:00;;;;;;;8.45;4.10;;;16.80;99.90;;;;;;5086430;28;20044;-71
2023/07/19 03:15:27;;;;;;;10.90;4.20;;;16.70;99.90;;;;;;5071721;28;20400;-71
2023/07/19 03:17:52;;;;;;;9.45;4.00;;;16.70;99.90;;;;;;5088199;28;20055;-71
2023/07/19 03:20:18;;;;;;;9.52;4.72;;;16.70;99.90;;;;;;5071466;28;20385;-71
2023/07/19 03:22:44;;;;;;;10.85;4.35;;;16.70;99.90;;;;;;5087608;28;20162;-70
2023/07/19 03:25:10;;;;;;;9.15;4.65;;;16.70;99.90;;;;;;5088026;28;20069;-71
2023/07/19 03:27:35;;;;;;;7.15;4.13;;;16.60;99.90;;;;;;5090036;28;20632;-71
2023/07/19 03:30:02;;;;;;;9.55;4.65;;;16.70;99.90;;;;;;5087872;28;20040;-71
2023/07/19 03:32:29;;;;;;;12.02;5.38;;;16.70;99.90;;;;;;5087442;28;20066;-71
2023/07/19 03:34:55;;;;;;;10.43;4.75;;;16.70;99.90;;;;;;5087770;28;20051;-71
2023/07/19 03:37:21;;;;;;;7.97;4.85;;;16.60;99.90;;;;;;5086777;28;20405;-71
2023/07/19 03:39:47;;;;;;;6.70;4.35;;;16.60;99.90;;;;;;5087457;28;20040;-71
2023/07/19 03:42:13;;;;;;;9.65;4.93;;;16.60;99.90;;;;;;5086237;28;20055;-71
2023/07/19 03:44:38;;;;;;;8.80;4.90;;;16.60;99.90;;;;;;5086305;28;20040;-71
2023/07/19 03:47:04;;;;;;;8.73;5.13;;;16.60;99.90;;;;;;5086201;28;20044;-71
2023/07/19 03:49:30;;;;;;;8.38;4.78;;;16.60;99.90;;;;;;5086972;28;20055;-71
2023/07/19 03:51:56;;;;;;;11.45;5.05;;;16.60;99.90;;;;;;5085530;28;20048;-71
2023/07/19 03:54:21;;;;;;;8.43;4.97;;;16.60;99.90;;;;;;5079471;28;20607;-71
2023/07/19 03:56:47;;;;;;;10.98;5.65;;;16.60;99.90;;;;;;5066532;28;20036;-71
2023/07/19 03:59:13;;;;;;;10.25;5.00;;;16.60;99.90;;;;;;5075538;28;20063;-71
2023/07/19 04:01:39;;;;;;;10.10;5.43;;;16.60;99.90;;;;;;5080263;28;20055;-71
2023/07/19 04:04:04;;;;;;;10.00;5.10;;;16.50;99.90;;;;;;5084689;28;20044;-68
2023/07/19 04:06:30;;;;;;;8.93;5.40;;;16.50;99.90;;;;;;5085933;28;20043;-68
2023/07/19 04:08:56;;;;;;;10.55;5.82;;;16.50;99.90;;;;;;5078364;28;20144;-67
2023/07/19 04:11:22;;;;;;;9.93;5.40;;;16.50;99.90;;;;;;5077502;28;20031;-69
2023/07/19 04:13:47;;;;;;;9.57;5.38;;;16.50;99.90;;;;;;5069960;28;20136;-68
2023/07/19 04:16:13;;;;;;;11.32;5.70;;;16.50;99.90;;;;;;5065156;28;20154;-68
2023/07/19 04:18:39;;;;;;;10.68;5.60;;;16.50;99.90;;;;;;5076316;28;20080;-69
2023/07/19 04:21:05;;;;;;;10.23;5.88;;;16.60;99.90;;;;;;5092850;28;20100;-68
2023/07/19 04:23:30;;;;;;;8.52;5.18;;;16.50;99.90;;;;;;5095093;28;20079;-68
2023/07/19 04:25:56;;;;;;;12.38;6.40;;;16.50;99.90;;;;;;5092291;28;20500;-68
2023/07/19 04:28:22;;;;;;;8.77;4.70;;;16.60;99.90;;;;;;5098874;28;20045;-68
2023/07/19 04:30:47;;;;;;;8.85;4.95;;;16.60;99.90;;;;;;5083409;28;20040;-69
2023/07/19 04:33:14;;;;;;;9.85;5.47;;;16.60;99.90;;;;;;5107916;28;20039;-69
2023/07/19 04:35:41;;;;;;;9.75;5.82;;;16.50;99.90;;;;;;5044430;28;1184046;-69
2023/07/19 04:38:07;;;;;;;8.52;6.38;;;16.50;99.90;;;;;;5098755;28;20435;-69
2023/07/19 04:40:32;;;;;;;10.88;5.95;;;16.60;99.90;;;;;;5096506;28;20043;-69
2023/07/19 04:42:59;;;;;;;10.02;5.90;;;16.50;99.90;;;;;;5066931;28;20124;-68
2023/07/19 04:45:25;;;;;;;10.65;5.95;;;16.60;99.90;;;;;;5071950;28;20085;-68
2023/07/19 04:47:51;;;;;;;10.07;5.68;;;16.50;99.90;;;;;;5080905;28;20047;-68
2023/07/19 04:50:16;;;;;;;12.00;6.60;;;16.50;99.90;;;;;;5077804;28;20040;-69
2023/07/19 04:52:45;;;;;;;10.18;6.13;;;16.60;99.90;;;;;;5075730;28;20096;-68
2023/07/19 04:55:11;;;;;;;10.77;5.80;;;16.50;99.90;;;;;;5098264;28;20051;-68
2023/07/19 04:57:37;;;;;;;8.85;5.50;;;16.50;99.90;;;;;;5082046;28;20067;-68
2023/07/19 05:00:05;;;;;;;10.38;5.88;;;16.60;99.90;;;;;;5085683;28;20408;-68
2023/07/19 05:02:31;;;;;;;11.35;6.70;;;16.60;99.90;;;;;;5068791;28;20055;-68
2023/07/19 05:04:56;;;;;;;9.57;5.72;;;16.60;99.90;;;;;;5094776;28;20798;-68
2023/07/19 05:07:22;;;;;;;11.38;5.75;;;16.60;99.90;;;;;;5091876;28;20060;-69
2023/07/19 05:09:48;;;;;;;10.57;6.03;;;16.60;99.90;;;;;;5086039;28;20828;-68
2023/07/19 05:12:15;;;;;;;10.43;5.90;;;16.60;99.90;;;;;;5087026;28;20052;-68
2023/07/19 05:14:41;;;;;;;10.45;5.50;;;16.60;99.90;;;;;;5067907;28;20135;-68
2023/07/19 05:17:07;;;;;;;8.30;5.43;;;16.60;99.90;;;;;;5086584;28;20581;-69
2023/07/19 05:19:33;;;;;;;8.60;5.15;;;16.60;99.90;;;;;;5084020;28;20287;-69
2023/07/19 05:21:59;;;;;;;9.30;5.22;;;16.60;99.90;;;;;;5080064;28;20052;-68
2023/07/19 05:24:24;;;;;;;10.25;5.45;;;16.60;99.90;;;;;;5068936;28;20040;-69
2023/07/19 05:26:50;;;;;;;10.48;5.55;;;16.60;99.90;;;;;;5096193;28;20500;-68
2023/07/19 05:29:16;;;;;;;12.05;5.25;;;16.60;99.90;;;;;;5085038;28;20093;-70
2023/07/19 05:31:41;;;;;;;9.88;5.32;;;16.60;99.90;;;;;;5071580;28;20097;-68
2023/07/19 05:34:08;;;;;;;8.38;5.05;;;16.60;99.90;;;;;;5084256;28;20047;-69
2023/07/19 05:36:34;;;;;;;11.38;5.00;;;16.60;99.90;;;;;;5085680;28;20083;-68
2023/07/19 05:39:01;;;;;;;12.00;5.07;;;16.60;99.90;;;;;;5085203;28;20059;-69
2023/07/19 05:41:27;;;;;;;10.25;5.38;;;16.60;99.90;;;;;;5081244;28;20124;-69
2023/07/19 05:43:53;;;;;;;9.48;5.43;;;16.60;99.90;;;;;;5078825;28;20123;-69
2023/07/19 05:46:19;;;;;;;11.45;5.50;;;16.60;99.90;;;;;;5086781;28;20050;-72
2023/07/19 05:48:45;;;;;;;11.45;5.85;;;16.60;99.90;;;;;;5079646;28;20059;-72
2023/07/19 05:51:11;;;;;;;12.65;5.32;;;16.60;99.90;;;;;;5077776;28;20505;-72
2023/07/19 05:53:37;;;;;;;10.88;5.63;;;16.60;99.90;;;;;;5090203;28;20100;-73
2023/07/19 05:56:03;;;;;;;11.43;5.47;;;16.60;99.90;;;;;;5085439;28;20044;-71
2023/07/19 05:58:30;;;;;;;9.65;4.65;;;16.60;99.90;;;;;;5086806;28;20046;-69
2023/07/19 06:00:56;;;;;;;9.55;3.70;;;16.60;99.90;;;;;;5082536;28;20087;-69
2023/07/19 06:03:22;;;;;;;7.57;3.33;;;16.60;99.90;;;;;;5065052;28;20076;-68
2023/07/19 06:05:48;;;;;;;8.07;2.83;;;16.60;99.90;;;;;;5081529;28;20070;-70
2023/07/19 06:08:14;;;;;;;9.23;3.15;;;16.60;99.90;;;;;;5089382;28;20942;-71
2023/07/19 06:10:40;;;;;;;6.47;2.80;;;16.60;99.90;;;;;;5081579;28;20044;-69
2023/07/19 06:13:08;;;;;;;8.68;2.85;;;16.50;99.90;;;;;;5068006;28;20044;-70
2023/07/19 06:15:34;;;;;;;7.65;2.70;;;16.50;99.90;;;;;;5081644;28;20052;-70
2023/07/19 06:18:00;;;;;;;5.55;1.90;;;16.50;99.90;;;;;;5074450;28;20032;-70
2023/07/19 06:20:26;;;;;;;6.90;1.90;;;16.50;99.90;;;;;;5076470;28;20035;-70
2023/07/19 06:22:52;;;;;;;7.57;2.28;;;16.50;99.90;;;;;;5071329;28;20128;-71
2023/07/19 06:25:18;;;;;;;4.32;1.67;;;16.50;99.90;;;;;;5080182;28;20123;-70
2023/07/19 06:27:44;;;;;;;5.30;2.08;;;16.50;99.90;;;;;;5070996;28;20635;-70
2023/07/19 06:30:11;;;;;;;5.15;1.60;;;16.50;99.90;;;;;;5067117;28;20052;-69
2023/07/19 06:32:37;;;;;;;6.78;1.52;;;16.50;99.90;;;;;;5065866;28;20051;-70
2023/07/19 06:35:04;;;;;;;6.32;1.67;;;16.50;99.90;;;;;;5054619;28;20051;-70
2023/07/19 06:37:31;;;;;;;7.28;1.40;;;16.50;99.90;;;;;;5069210;28;20141;-70
2023/07/19 06:39:57;;;;;;;6.20;1.60;;;16.50;99.90;;;;;;5064562;28;20080;-69
2023/07/19 06:42:23;;;;;;;6.20;1.90;;;16.60;99.90;;;;;;5048135;28;20607;-69
2023/07/19 06:44:49;;;;;;;7.22;2.22;;;16.60;99.90;;;;;;5067063;28;20051;-69
2023/07/19 06:47:15;;;;;;;7.50;2.20;;;16.60;99.90;;;;;;5065824;28;20087;-69
2023/07/19 06:49:41;;;;;;;13.13;2.20;;;16.60;99.90;;;;;;5065671;28;20135;-69
2023/07/19 06:52:08;;;;;;;6.47;2.25;;;16.60;99.90;;;;;;5063012;28;20064;-69
2023/07/19 06:54:33;;;;;;;8.32;2.08;;;16.60;99.90;;;;;;5068638;28;20075;-69
2023/07/19 06:56:59;;;;;;;8.40;2.38;;;16.60;99.90;;;;;;5067279;28;20135;-72
2023/07/19 06:59:26;;;;;;;8.00;2.70;;;16.70;99.90;;;;;;5067579;28;20151;-73
2023/07/19 07:01:52;;;;;;;6.00;2.38;;;16.70;99.90;;;;;;5065619;28;20071;-73
2023/07/19 07:04:18;;;;;;;7.47;2.63;;;16.70;99.90;;;;;;5066285;28;20123;-73
2023/07/19 07:06:43;;;;;;;6.72;2.38;;;16.70;99.90;;;;;;5050287;28;20134;-73
2023/07/19 07:09:09;;;;;;;8.30;3.08;;;16.80;99.90;;;;;;5051035;28;20048;-73
2023/07/19 07:11:35;;;;;;;5.75;2.20;;;16.80;99.90;;;;;;5078380;28;20032;-73
2023/07/19 07:14:01;;;;;;;5.70;2.40;;;16.90;99.90;;;;;;5070793;28;20043;-73
2023/07/19 07:16:28;;;;;;;8.38;2.75;;;16.90;99.90;;;;;;5051884;28;20081;-73
2023/07/19 07:18:54;;;;;;;10.20;2.20;;;16.90;99.90;;;;;;5076974;28;20044;-74
2023/07/19 07:21:19;;;;;;;6.90;2.22;;;16.90;99.90;;;;;;5075994;28;21051;-73
2023/07/19 07:23:45;;;;;;;8.32;2.10;;;17.00;99.90;;;;;;5067183;28;20127;-73
2023/07/19 07:26:11;;;;;;;8.13;1.90;;;17.00;99.90;;;;;;5065077;28;20489;-73
2023/07/19 07:28:37;;;;;;;6.43;2.53;;;17.10;99.90;;;;;;5067389;28;20115;-74
2023/07/19 07:31:08;;;;;;;12.75;2.47;;;17.00;99.90;;;;;;5066006;28;20213;-73
2023/07/19 07:33:37;;;;;;;;;;;17.10;99.90;;;;;;5061639;28;20539;-72
2023/07/19 07:36:03;;;;;;;9.43;2.05;;;17.10;99.90;;;;;;5069268;28;19931;-72
2023/07/19 07:38:29;;;;;;;7.28;2.05;;;17.10;99.90;;;;;;5052633;28;20544;-72
2023/07/19 07:41:01;;;;;;;5.43;1.80;;;17.10;99.90;;;;;;5069121;28;20048;-73
2023/07/19 07:43:29;;;;;;;5.10;1.60;;;17.20;99.90;;;;;;5068385;28;20048;-73
2023/07/19 07:45:55;;;;;;;6.13;1.80;;;17.20;99.90;;;;;;5049297;28;20134;-72
2023/07/19 07:48:24;;;;;;;7.68;1.95;;;17.30;99.90;;;;;;5070899;28;20401;-72
2023/07/19 07:50:53;;;;;;;7.88;1.90;;;17.30;99.90;;;;;;5073002;28;20122;-73
2023/07/19 07:53:19;;;;;;;7.50;1.80;;;17.30;99.90;;;;;;5070864;28;20052;-72
2023/07/19 07:55:45;;;;;;;5.13;1.83;;;17.30;99.90;;;;;;5070841;28;20040;-72
2023/07/19 07:58:12;;;;;;;5.28;1.67;;;17.40;99.90;;;;;;5071025;28;20067;-73
2023/07/19 08:00:37;;;;;;;6.57;1.90;;;17.50;99.90;;;;;;5071494;28;20044;-72
2023/07/19 08:03:03;;;;;;;6.45;1.83;;;17.60;99.90;;;;;;5070668;28;20082;-72
2023/07/19 08:05:31;;;;;;;5.60;1.80;;;17.70;99.90;;;;;;5068554;28;20051;-69
2023/07/19 08:07:57;;;;;;;5.43;1.80;;;17.80;99.90;;;;;;5065829;28;20808;-70
2023/07/19 08:10:23;;;;;;;6.30;1.77;;;18.00;99.90;;;;;;5066149;28;20047;-69
2023/07/19 08:12:49;;;;;;;7.30;1.50;;;18.20;99.90;;;;;;5065123;28;20043;-69
2023/07/19 08:15:15;;;;;;;5.60;1.40;;;18.40;99.90;;;;;;5068971;28;20127;-69
2023/07/19 08:17:41;;;;;;;4.40;1.38;;;18.60;99.90;;;;;;5073593;28;20048;-69
2023/07/19 08:20:09;;;;;;;3.08;1.10;;;18.70;99.90;;;;;;5077698;28;20040;-70
2023/07/19 08:22:37;;;;;;;6.65;1.35;;;18.80;99.90;;;;;;5072636;28;20039;-69
2023/07/19 08:25:04;;;;;;;6.63;1.50;;;18.80;99.90;;;;;;5073699;28;20036;-70
2023/07/19 08:27:30;;;;;;;5.07;1.38;;;18.90;99.90;;;;;;5073400;28;20035;-73
2023/07/19 08:29:55;;;;;;;6.35;1.50;;;19.00;99.90;;;;;;5046789;28;20051;-73
2023/07/19 08:32:21;;;;;;;5.13;1.50;;;19.00;99.90;;;;;;5069026;28;20041;-73
2023/07/19 08:34:47;;;;;;;7.35;1.60;;;19.10;99.90;;;;;;5068365;28;20127;-72
2023/07/19 08:37:13;;;;;;;3.42;0.90;;;19.20;99.90;;;;;;5068728;28;20052;-73
2023/07/19 08:39:39;;;;;;;8.02;1.60;;;19.30;99.90;;;;;;5053588;28;20097;-72
2023/07/19 08:42:06;;;;;;;4.53;1.15;;;19.30;99.90;;;;;;5071125;28;20055;-73
2023/07/19 08:44:32;;;;;;;5.57;1.10;;;19.30;99.90;;;;;;5067772;28;20040;-73
2023/07/19 08:46:58;;;;;;;4.43;1.40;;;19.30;99.90;;;;;;5061469;28;20515;-74
2023/07/19 08:49:24;;;;;;;4.15;1.40;;;19.40;99.90;;;;;;5069588;28;20153;-72
2023/07/19 08:51:51;;;;;;;4.55;1.30;;;19.40;99.90;;;;;;5077932;28;20048;-72
2023/07/19 08:54:17;;;;;;;5.60;1.30;;;19.50;99.90;;;;;;5084172;28;20083;-73
2023/07/19 08:56:43;;;;;;;5.45;1.20;;;19.40;99.90;;;;;;5082661;28;20105;-73
2023/07/19 08:59:09;;;;;;;6.55;1.30;;;19.50;99.90;;;;;;5080307;28;20170;-73
2023/07/19 09:01:35;;;;;;;5.85;1.33;;;19.50;99.90;;;;;;5071332;28;20052;-72
2023/07/19 09:04:07;;;;;;;6.03;1.23;;;19.60;99.90;;;;;;5071609;28;20230;-72
2023/07/19 09:06:33;;;;;;;4.85;1.15;;;19.60;99.90;;;;;;5069792;28;20044;-73
2023/07/19 09:09:00;;;;;;;5.65;1.42;;;19.60;99.90;;;;;;5068452;28;20044;-73
2023/07/19 09:11:26;;;;;;;5.93;1.40;;;19.70;99.90;;;;;;5052891;28;20044;-73
2023/07/19 09:13:53;;;;;;;5.80;1.35;;;19.70;99.90;;;;;;5066435;28;20047;-73
2023/07/19 09:16:30;;;;;;;5.60;1.42;;;19.70;99.90;;;;;;5048542;28;20816;-73
2023/07/19 09:19:00;;;;;;;8.10;1.40;;;19.70;99.90;;;;;;5066791;28;20055;-73
2023/07/19 09:21:31;;;;;;;4.77;1.40;;;19.70;99.90;;;;;;5069946;28;20416;-73
2023/07/19 09:23:57;;;;;;;5.15;1.27;;;19.70;99.90;;;;;;5051569;28;20458;-73
2023/07/19 09:26:22;;;;;;;4.53;1.23;;;19.70;99.90;;;;;;5072945;28;20040;-73
2023/07/19 09:28:51;;;;;;;6.13;1.30;;;19.70;99.90;;;;;;5069603;28;20036;-73
2023/07/19 09:31:17;;;;;;;6.95;1.48;;;19.70;99.90;;;;;;5067611;28;20110;-73
2023/07/19 09:33:43;;;;;;;5.35;1.45;;;19.60;99.90;;;;;;5068532;28;20152;-72
2023/07/19 09:36:08;;;;;;;6.47;1.73;;;19.70;99.90;;;;;;5069607;28;20516;-72
2023/07/19 09:38:34;;;;;;;5.25;1.70;;;19.60;99.90;;;;;;5069917;28;20143;-72
2023/07/19 09:41:00;;;;;;;3.78;1.35;;;19.60;99.90;;;;;;5071278;28;20868;-72
2023/07/19 09:43:27;;;;;;;7.05;1.77;;;19.60;99.90;;;;;;5067147;28;20532;-73
2023/07/19 09:45:54;;;;;;;3.63;1.20;;;19.60;99.90;;;;;;5068404;28;20049;-73
2023/07/19 09:48:23;;;;;;;6.13;1.40;;;19.70;99.90;;;;;;5069305;28;20131;-72
2023/07/19 09:50:49;;;;;;;4.78;1.48;;;19.70;99.90;;;;;;5070608;28;20040;-72
2023/07/19 09:53:16;;;;;;;6.93;1.80;;;19.90;99.90;;;;;;5078679;28;20122;-73
2023/07/19 09:55:45;;;;;;;4.35;1.20;;;19.90;99.90;;;;;;5061005;28;20080;-72
2023/07/19 09:58:13;;;;;;;5.60;1.60;;;20.00;99.90;;;;;;5086249;28;20097;-72
2023/07/19 10:00:39;;;;;;;7.07;1.95;;;20.00;99.90;;;;;;5083355;28;20043;-72
2023/07/19 10:03:08;;;;;;;4.85;1.45;;;20.00;99.90;;;;;;5080853;28;20051;-72
2023/07/19 10:05:36;;;;;;;8.20;1.70;;;19.90;99.90;;;;;;5074454;28;20048;-72
2023/07/19 10:08:06;;;;;;;5.20;1.80;;;19.90;99.90;;;;;;5079807;28;20057;-72
2023/07/19 10:10:42;;;;;;;6.72;1.50;;;20.00;99.90;;;;;;5063485;28;20048;-71
2023/07/19 10:13:08;;;;;;;4.28;1.40;;;20.00;99.90;;;;;;5064648;28;20049;-72
2023/07/19 10:15:37;;;;;;;6.78;1.77;;;20.10;99.90;;;;;;5067782;28;20028;-72
2023/07/19 10:18:12;;;;;;;5.30;1.67;;;20.10;99.90;;;;;;5066091;28;20045;-73
2023/07/19 10:20:40;;;;;;;3.45;1.10;;;20.10;99.90;;;;;;5068088;28;20205;-72
2023/07/19 10:23:13;;;;;;;5.75;1.30;;;20.10;99.90;;;;;;5065737;28;20101;-71
2023/07/19 10:25:47;;;;;;;6.18;1.30;;;20.00;99.90;;;;;;5065081;28;20036;-71
2023/07/19 10:28:14;;;;;;;3.90;1.20;;;19.90;99.90;;;;;;5064774;28;20048;-71
2023/07/19 10:30:56;;;;;;;5.55;1.23;;;19.80;99.90;;;;;;5072231;28;20056;-72
2023/07/19 10:33:30;;;;;;;6.15;1.30;;;19.70;99.90;;;;;;5072722;28;20040;-72
2023/07/19 10:36:05;;;;;;;5.18;1.30;;;19.70;99.90;;;;;;5068910;28;20100;-72
2023/07/19 10:38:32;;;;;;;5.10;1.55;;;19.70;99.90;;;;;;5046589;28;20067;-72
2023/07/19 10:41:00;;;;;;;4.18;1.42;;;19.70;99.90;;;;;;5064789;28;20040;-72
2023/07/19 10:43:27;;;;;;;5.22;2.03;;;19.70;99.90;;;;;;5062783;28;20040;-73
2023/07/19 10:45:54;;;;;;;7.90;1.50;;;19.70;99.90;;;;;;5064546;28;20505;-69
2023/07/19 10:48:35;;;;;;;3.40;1.20;;;19.80;99.90;;;;;;5051684;28;20048;-70
2023/07/19 10:51:03;;;;;;;4.85;1.40;;;19.80;99.90;;;;;;5068593;28;20048;-70
2023/07/19 10:53:32;;;;;;;6.35;1.40;;;19.90;99.90;;;;;;5067318;28;20070;-70
2023/07/19 10:56:00;;;;;;;5.10;1.15;;;19.90;99.90;;;;;;5069275;28;20040;-70
2023/07/19 10:58:26;;;;;;;4.68;1.20;;;19.90;99.90;;;;;;5064712;28;20128;-70
2023/07/19 11:00:53;;;;;;;4.22;1.27;;;20.00;99.90;;;;;;5064799;28;20127;-71
2023/07/19 11:03:22;;;;;;;6.28;1.25;;;20.10;99.90;;;;;;5065979;28;20566;-71
2023/07/19 11:05:50;;;;;;;4.38;1.00;;;20.10;99.90;;;;;;5068055;28;20352;-71
2023/07/19 11:08:34;;;;;;;4.85;1.20;;;20.10;99.90;;;;;;5068983;28;20044;-70
2023/07/19 11:11:00;;;;;;;3.58;0.98;;;20.20;99.90;;;;;;5073380;28;20729;-70
2023/07/19 11:13:26;;;;;;;3.88;1.27;;;20.20;99.90;;;;;;5062127;28;20047;-71
2023/07/19 11:15:53;;;;;;;4.43;0.95;;;20.20;99.90;;;;;;5071597;28;20040;-71
2023/07/19 11:18:23;;;;;;;3.72;1.20;;;20.20;99.90;;;;;;5061875;28;20145;-71
2023/07/19 11:20:49;;;;;;;3.83;1.20;;;20.30;99.90;;;;;;5062994;28;20044;-71
2023/07/19 11:23:15;;;;;;;6.20;1.25;;;20.40;99.90;;;;;;5065138;28;20051;-72
2023/07/19 11:25:41;;;;;;;3.00;1.00;;;20.40;99.90;;;;;;5082514;28;20433;-71
2023/07/19 11:28:07;;;;;;;6.15;1.23;;;20.50;99.90;;;;;;5076745;28;20055;-72
2023/07/19 11:30:38;;;;;;;4.05;1.20;;;20.70;99.90;;;;;;5078706;28;20104;-71
2023/07/19 11:33:05;;;;;;;5.22;1.15;;;20.80;99.90;;;;;;5072583;28;20059;-71
2023/07/19 11:35:31;;;;;;;2.80;0.90;;;20.80;99.90;;;;;;5087527;28;20123;-72
2023/07/19 11:37:56;;;;;;;2.95;1.00;;;20.80;99.90;;;;;;5074904;28;20180;-71
2023/07/19 11:40:25;;;;;;;5.55;1.08;;;20.90;99.90;;;;;;5072202;28;20711;-72
2023/07/19 11:42:57;;;;;;;3.67;1.00;;;20.90;99.90;;;;;;5078533;28;20343;-71
2023/07/19 11:45:43;;;;;;;4.97;1.15;;;21.00;99.90;;;;;;5068508;28;20071;-71
2023/07/19 11:48:09;;;;;;;5.60;1.23;;;21.00;99.90;;;;;;5077637;28;20043;-71
2023/07/19 11:50:38;;;;;;;5.80;1.27;;;21.00;99.90;;;;;;5077618;28;20043;-71
2023/07/19 11:53:05;;;;;;;3.03;1.00;;;21.00;99.90;;;;;;5081900;28;20036;-71
2023/07/19 11:55:31;;;;;;;3.60;0.85;;;20.90;99.90;;;;;;5073017;28;20045;-71
2023/07/19 11:58:03;;;;;;;2.47;0.95;;;20.80;99.90;;;;;;5076725;28;20044;-72
2023/07/19 12:00:31;;;;;;;3.63;1.05;;;20.80;99.90;;;;;;5083280;28;20571;-71
2023/07/19 12:02:57;;;;;;;3.08;0.80;;;20.80;99.90;;;;;;5077362;28;20036;-72
2023/07/19 12:05:24;;;;;;;3.20;0.80;;;20.70;99.90;;;;;;5079025;28;20039;-72
2023/07/19 12:07:51;;;;;;;5.68;1.25;;;20.70;99.90;;;;;;5079963;28;20081;-73
2023/07/19 12:10:22;;;;;;;3.60;1.52;;;20.60;99.90;;;;;;5081161;28;20618;-72
2023/07/19 12:12:48;;;;;;;3.08;1.23;;;20.60;99.90;;;;;;5073268;28;20044;-74
2023/07/19 12:15:14;;;;;;;3.40;1.00;;;20.60;99.90;;;;;;5076741;28;20044;-74
2023/07/19 12:17:41;;;;;;;2.33;0.90;;;20.70;99.90;;;;;;5071133;28;20145;-74
2023/07/19 12:20:08;;;;;;;2.75;1.00;;;20.60;99.90;;;;;;5045406;28;20220;-74
2023/07/19 12:22:35;;;;;;;3.17;1.00;;;20.60;99.90;;;;;;5045937;28;20137;-74
2023/07/19 12:25:02;;;;;;;3.00;1.00;;;20.60;99.90;;;;;;5064646;28;20044;-74
2023/07/19 12:27:28;;;;;;;3.03;0.90;;;20.70;99.90;;;;;;5065842;28;20082;-74
2023/07/19 12:29:54;;;;;;;2.72;0.90;;;20.70;99.90;;;;;;5066861;28;20033;-74
2023/07/19 12:32:20;;;;;;;2.53;0.90;;;20.60;99.90;;;;;;5060346;28;20493;-74
2023/07/19 12:34:46;;;;;;;3.15;0.88;;;20.50;99.90;;;;;;5059862;28;20055;-72
2023/07/19 12:37:13;;;;;;;3.40;1.00;;;20.50;99.90;;;;;;5041636;28;20044;-73
2023/07/19 12:39:40;;;;;;;3.22;0.90;;;20.40;99.90;;;;;;5061184;28;20044;-73
2023/07/19 12:42:07;;;;;;;2.15;0.60;;;20.30;99.90;;;;;;5060247;28;20048;-72